PWSweather.com
Personal Weather Stations
Station Observations
RTINEZ
TerrassaES 08226

TerrassaES 08226

Lat: 41.5762194, Lon: 2.028993700000001

Elevation: 367

Station Type: Watson W8681

www.rtinez.cat

High Low Average
Temperature 0.0°F0.0°F 0.0°F0.0°F 0.0°F0.0°F
Dew Point 0.0°F0.0°F 0.0°F0.0°F 0.0°F0.0°F
Winds Calm -Calm - Calm Calm Calm Calm
Wind Gusts -- -- --
Humidity 0% 0% 0%
Pressure 0.00 in0.00 in 0.00 in0.00 in -
Precipitation 0.00 in0.0 mm - -
Hour Temp Dew Point Humidity Winds Wind Gusts Pressure Precip Precip Rate Daily Precip Total
12:02 AM 57.4°F14.1°C 46.9°F8.3°C 68% 4.5 mph WNW7.2 kmh WNW 6.9 mph11.1 kmh 30.16 in1021.3 mb 0.00 in0.0 mm 0.00 in0.0 mm 0.00 in0.0 mm
12:32 AM 55.6°F13.1°C 46.7°F8.2°C 72% 3.1 mph S5.0 kmh S 3.8 mph6.1 kmh 30.16 in1021.3 mb 0.00 in0.0 mm 0.00 in0.0 mm 0.00 in0.0 mm
01:02 AM 54.1°F12.3°C 46.0°F7.8°C 74% 1.6 mph E2.6 kmh E 3.1 mph5.0 kmh 30.18 in1022.0 mb 0.00 in0.0 mm 0.00 in0.0 mm 0.00 in0.0 mm
01:32 AM 53.8°F12.1°C 46.4°F8.0°C 76% 2.2 mph SE3.5 kmh SE 3.1 mph5.0 kmh 30.18 in1022.0 mb 0.00 in0.0 mm 0.00 in0.0 mm 0.00 in0.0 mm
02:02 AM 52.9°F11.6°C 47.2°F8.4°C 81% 3.8 mph N6.1 kmh N 5.4 mph8.7 kmh 30.19 in1022.4 mb 0.00 in0.0 mm 0.00 in0.0 mm 0.00 in0.0 mm
02:32 AM 53.6°F12.0°C 45.9°F7.7°C 75% 4.5 mph N7.2 kmh N 7.6 mph12.2 kmh 30.18 in1022.0 mb 0.00 in0.0 mm 0.00 in0.0 mm 0.00 in0.0 mm
03:02 AM 53.6°F12.0°C 46.2°F7.9°C 76% 5.4 mph N8.7 kmh N 7.6 mph12.2 kmh 30.18 in1022.0 mb 0.00 in0.0 mm 0.00 in0.0 mm 0.00 in0.0 mm
03:32 AM 54.0°F12.2°C 46.9°F8.3°C 77% 1.6 mph NE2.6 kmh NE 2.2 mph3.5 kmh 30.18 in1022.0 mb 0.00 in0.0 mm 0.00 in0.0 mm 0.00 in0.0 mm
04:02 AM 53.2°F11.8°C 46.9°F8.3°C 79% 3.1 mph ENE5.0 kmh ENE 5.4 mph8.7 kmh 30.19 in1022.4 mb 0.00 in0.0 mm 0.00 in0.0 mm 0.00 in0.0 mm
04:32 AM 50.9°F10.5°C 46.2°F7.9°C 84% 2.2 mph NE3.5 kmh NE 4.5 mph7.2 kmh 30.20 in1022.7 mb 0.00 in0.0 mm 0.00 in0.0 mm 0.00 in0.0 mm
05:02 AM 50.5°F10.3°C 47.4°F8.6°C 89% 1.6 mph NNW2.6 kmh NNW 2.2 mph3.5 kmh 30.20 in1022.7 mb 0.00 in0.0 mm 0.00 in0.0 mm 0.00 in0.0 mm
05:32 AM 51.3°F10.7°C 48.4°F9.1°C 90% 4.5 mph NNE7.2 kmh NNE 5.4 mph8.7 kmh 30.20 in1022.7 mb 0.00 in0.0 mm 0.00 in0.0 mm 0.00 in0.0 mm
06:02 AM 52.9°F11.6°C 49.4°F9.7°C 88% 1.6 mph WSW2.6 kmh WSW 2.2 mph3.5 kmh 30.19 in1022.4 mb 0.00 in0.0 mm 0.00 in0.0 mm 0.00 in0.0 mm
06:32 AM 51.8°F11.0°C 47.7°F8.7°C 86% 3.8 mph NW6.1 kmh NW 4.5 mph7.2 kmh 30.20 in1022.7 mb 0.00 in0.0 mm 0.00 in0.0 mm 0.00 in0.0 mm
07:02 AM 52.3°F11.3°C 49.2°F9.6°C 89% 3.8 mph NW6.1 kmh NW 4.5 mph7.2 kmh 30.20 in1022.7 mb 0.00 in0.0 mm 0.00 in0.0 mm 0.00 in0.0 mm
07:32 AM 52.0°F11.1°C 48.8°F9.3°C 89% 3.1 mph WSW5.0 kmh WSW 4.5 mph7.2 kmh 30.21 in1023.0 mb 0.00 in0.0 mm 0.00 in0.0 mm 0.00 in0.0 mm
08:02 AM 51.1°F10.6°C 48.0°F8.9°C 89% 1.6 mph W2.6 kmh W 3.1 mph5.0 kmh 30.22 in1023.4 mb 0.00 in0.0 mm 0.00 in0.0 mm 0.00 in0.0 mm
08:32 AM 50.4°F10.2°C 46.9°F8.3°C 88% 4.5 mph NW7.2 kmh NW 6.9 mph11.1 kmh 30.22 in1023.4 mb 0.00 in0.0 mm 0.00 in0.0 mm 0.00 in0.0 mm
09:02 AM 52.5°F11.4°C 47.5°F8.6°C 83% 2.2 mph W3.5 kmh W 3.8 mph6.1 kmh 30.23 in1023.7 mb 0.00 in0.0 mm 0.00 in0.0 mm 0.00 in0.0 mm
09:32 AM 53.4°F11.9°C 44.6°F7.0°C 72% 4.5 mph S7.2 kmh S 6.0 mph9.7 kmh 30.25 in1024.4 mb 0.00 in0.0 mm 0.00 in0.0 mm 0.00 in0.0 mm
10:02 AM 55.4°F13.0°C 47.2°F8.4°C 74% 1.6 mph SE2.6 kmh SE 2.2 mph3.5 kmh 30.25 in1024.4 mb 0.00 in0.0 mm 0.00 in0.0 mm 0.00 in0.0 mm
10:32 AM 60.3°F15.7°C 47.6°F8.7°C 63% Calm Calm 0.7 mph1.1 kmh 30.24 in1024.0 mb 0.00 in0.0 mm 0.00 in0.0 mm 0.00 in0.0 mm
11:02 AM 58.3°F14.6°C 45.7°F7.6°C 63% 2.2 mph SE3.5 kmh SE 3.1 mph5.0 kmh 30.25 in1024.4 mb 0.00 in0.0 mm 0.00 in0.0 mm 0.00 in0.0 mm
11:32 AM 60.3°F15.7°C 45.9°F7.7°C 59% 1.6 mph SE2.6 kmh SE 3.1 mph5.0 kmh 30.25 in1024.4 mb 0.00 in0.0 mm 0.00 in0.0 mm 0.00 in0.0 mm
12:02 PM 58.5°F14.7°C 45.9°F7.7°C 63% 4.5 mph WSW7.2 kmh WSW 6.9 mph11.1 kmh 30.24 in1024.0 mb 0.00 in0.0 mm 0.00 in0.0 mm 0.00 in0.0 mm
12:32 PM 57.7°F14.3°C 45.2°F7.3°C 63% 5.4 mph NW8.7 kmh NW 8.3 mph13.4 kmh 30.22 in1023.4 mb 0.00 in0.0 mm 0.00 in0.0 mm 0.00 in0.0 mm
01:02 PM 58.5°F14.7°C 45.9°F7.7°C 63% 6.0 mph WSW9.7 kmh WSW 9.2 mph14.8 kmh 30.22 in1023.4 mb 0.00 in0.0 mm 0.00 in0.0 mm 0.00 in0.0 mm
01:32 PM 56.8°F13.8°C 46.4°F8.0°C 68% 5.4 mph W8.7 kmh W 9.8 mph15.8 kmh 30.22 in1023.4 mb 0.00 in0.0 mm 0.00 in0.0 mm 0.00 in0.0 mm
02:02 PM 59.0°F15.0°C 46.8°F8.2°C 64% 4.5 mph WSW7.2 kmh WSW 8.3 mph13.4 kmh 30.20 in1022.7 mb 0.00 in0.0 mm 0.00 in0.0 mm 0.00 in0.0 mm
02:32 PM 60.3°F15.7°C 46.8°F8.2°C 61% 8.3 mph NW13.4 kmh NW 10.7 mph17.2 kmh 30.19 in1022.4 mb 0.00 in0.0 mm 0.00 in0.0 mm 0.00 in0.0 mm
03:02 PM 59.2°F15.1°C 47.0°F8.3°C 64% 4.5 mph NW7.2 kmh NW 9.2 mph14.8 kmh 30.19 in1022.4 mb 0.00 in0.0 mm 0.00 in0.0 mm 0.00 in0.0 mm
03:32 PM 61.2°F16.2°C 47.6°F8.7°C 61% 4.5 mph NE7.2 kmh NE 8.3 mph13.4 kmh 30.19 in1022.4 mb 0.00 in0.0 mm 0.00 in0.0 mm 0.00 in0.0 mm
04:02 PM 62.1°F16.7°C 48.0°F8.9°C 60% 3.8 mph E6.1 kmh E 6.9 mph11.1 kmh 30.19 in1022.4 mb 0.00 in0.0 mm 0.00 in0.0 mm 0.00 in0.0 mm
04:32 PM 63.7°F17.6°C 48.6°F9.2°C 58% 1.6 mph WSW2.6 kmh WSW 4.5 mph7.2 kmh 30.20 in1022.7 mb 0.00 in0.0 mm 0.00 in0.0 mm 0.00 in0.0 mm
05:02 PM 59.5°F15.3°C 47.3°F8.5°C 64% 2.2 mph WSW3.5 kmh WSW 3.1 mph5.0 kmh 30.21 in1023.0 mb 0.00 in0.0 mm 0.00 in0.0 mm 0.00 in0.0 mm
05:32 PM 56.5°F13.6°C 47.6°F8.7°C 72% 1.6 mph SE2.6 kmh SE 3.1 mph5.0 kmh 30.20 in1022.7 mb 0.00 in0.0 mm 0.00 in0.0 mm 0.00 in0.0 mm
06:02 PM 55.0°F12.8°C 47.3°F8.5°C 75% Calm Calm 0.7 mph1.1 kmh 30.21 in1023.0 mb 0.00 in0.0 mm 0.00 in0.0 mm 0.00 in0.0 mm
06:32 PM 53.8°F12.1°C 47.4°F8.6°C 79% 2.2 mph NW3.5 kmh NW 3.8 mph6.1 kmh 30.22 in1023.4 mb 0.00 in0.0 mm 0.00 in0.0 mm 0.00 in0.0 mm
07:02 PM 52.9°F11.6°C 47.2°F8.4°C 81% 3.1 mph W5.0 kmh W 4.5 mph7.2 kmh 30.24 in1024.0 mb 0.00 in0.0 mm 0.00 in0.0 mm 0.00 in0.0 mm
07:32 PM 53.2°F11.8°C 47.9°F8.8°C 82% 2.2 mph SW3.5 kmh SW 3.8 mph6.1 kmh 30.24 in1024.0 mb 0.00 in0.0 mm 0.00 in0.0 mm 0.00 in0.0 mm
08:02 PM 53.4°F11.9°C 47.4°F8.6°C 80% 5.4 mph NW8.7 kmh NW 6.9 mph11.1 kmh 30.25 in1024.4 mb 0.00 in0.0 mm 0.00 in0.0 mm 0.00 in0.0 mm
08:32 PM 53.6°F12.0°C 46.9°F8.3°C 78% 4.5 mph N7.2 kmh N 6.0 mph9.7 kmh 30.25 in1024.4 mb 0.00 in0.0 mm 0.00 in0.0 mm 0.00 in0.0 mm
09:02 PM 54.9°F12.7°C 48.1°F8.9°C 78% 5.4 mph ENE8.7 kmh ENE 8.3 mph13.4 kmh 30.24 in1024.0 mb 0.00 in0.0 mm 0.00 in0.0 mm 0.00 in0.0 mm
09:32 PM 53.8°F12.1°C 47.1°F8.4°C 78% 0.7 mph N1.1 kmh N 1.6 mph2.6 kmh 30.25 in1024.4 mb 0.00 in0.0 mm 0.00 in0.0 mm 0.00 in0.0 mm
10:02 PM 52.9°F11.6°C 46.9°F8.3°C 80% 2.2 mph E3.5 kmh E 3.8 mph6.1 kmh 30.25 in1024.4 mb 0.00 in0.0 mm 0.00 in0.0 mm 0.00 in0.0 mm
10:32 PM 52.2°F11.2°C 47.2°F8.4°C 83% 2.2 mph NW3.5 kmh NW 3.8 mph6.1 kmh 30.25 in1024.4 mb 0.00 in0.0 mm 0.00 in0.0 mm 0.00 in0.0 mm
11:02 PM 53.2°F11.8°C 47.2°F8.4°C 80% 3.1 mph WNW5.0 kmh WNW 3.8 mph6.1 kmh 30.25 in1024.4 mb 0.00 in0.0 mm 0.00 in0.0 mm 0.00 in0.0 mm
11:32 PM 53.4°F11.9°C 46.7°F8.2°C 78% 3.1 mph N5.0 kmh N 4.5 mph7.2 kmh 30.26 in1024.7 mb 0.00 in0.0 mm 0.00 in0.0 mm 0.00 in0.0 mm